sensor_id;sensor_type;location;lat;lon;timestamp;pressure;altitude;pressure_sealevel;temperature;humidity
9281;BME280;4679;47.966;7.958;2023-04-27T06:01:54;97236.41;;;9.79;74.83
9281;BME280;4679;47.966;7.958;2023-04-27T06:03:56;97240.44;;;9.81;74.96
9281;BME280;4679;47.966;7.958;2023-04-27T06:06:00;97234.69;;;9.84;74.61
9281;BME280;4679;47.966;7.958;2023-04-27T06:08:02;97239.84;;;9.91;75.14
9281;BME280;4679;47.966;7.958;2023-04-27T06:10:05;97238.31;;;9.95;75.50
9281;BME280;4679;47.966;7.958;2023-04-27T06:12:07;97247.19;;;10.01;74.51
9281;BME280;4679;47.966;7.958;2023-04-27T06:14:09;97252.81;;;10.04;75.32
9281;BME280;4679;47.966;7.958;2023-04-27T06:16:11;97245.44;;;10.06;75.44
9281;BME280;4679;47.966;7.958;2023-04-27T06:18:14;97248.97;;;10.12;75.19
9281;BME280;4679;47.966;7.958;2023-04-27T06:20:15;97254.97;;;10.19;75.11
9281;BME280;4679;47.966;7.958;2023-04-27T06:22:17;97257.97;;;10.23;75.08
9281;BME280;4679;47.966;7.958;2023-04-27T06:24:19;97258.84;;;10.28;74.37
9281;BME280;4679;47.966;7.958;2023-04-27T06:26:20;97262.88;;;10.31;74.22
9281;BME280;4679;47.966;7.958;2023-04-27T06:28:22;97263.28;;;10.39;74.14
9281;BME280;4679;47.966;7.958;2023-04-27T06:30:24;97270.31;;;10.45;74.36
9281;BME280;4679;47.966;7.958;2023-04-27T06:32:26;97262.78;;;10.54;73.41
9281;BME280;4679;47.966;7.958;2023-04-27T06:34:29;97262.13;;;10.64;72.94
9281;BME280;4679;47.966;7.958;2023-04-27T06:36:30;97264.94;;;10.74;73.27
9281;BME280;4679;47.966;7.958;2023-04-27T06:38:32;97258.69;;;10.80;73.09
9281;BME280;4679;47.966;7.958;2023-04-27T06:40:34;97265.50;;;10.92;72.90
9281;BME280;4679;47.966;7.958;2023-04-27T06:42:36;97256.66;;;11.04;72.39
9281;BME280;4679;47.966;7.958;2023-04-27T06:44:38;97249.16;;;11.17;71.96
9281;BME280;4679;47.966;7.958;2023-04-27T06:46:39;97251.47;;;11.31;72.11
9281;BME280;4679;47.966;7.958;2023-04-27T06:48:41;97252.66;;;11.40;71.77
9281;BME280;4679;47.966;7.958;2023-04-27T06:50:44;97252.31;;;11.53;71.32
9281;BME280;4679;47.966;7.958;2023-04-27T06:52:46;97251.34;;;11.59;71.79
9281;BME280;4679;47.966;7.958;2023-04-27T06:54:47;97250.66;;;11.69;71.51
9281;BME280;4679;47.966;7.958;2023-04-27T06:56:49;97254.25;;;11.79;70.76
9281;BME280;4679;47.966;7.958;2023-04-27T06:58:51;97257.78;;;11.85;71.19
9281;BME280;4679;47.966;7.958;2023-04-27T07:00:52;97257.31;;;11.88;71.13
9281;BME280;4679;47.966;7.958;2023-04-27T07:02:54;97262.13;;;11.91;70.92
9281;BME280;4679;47.966;7.958;2023-04-27T07:04:56;97257.63;;;11.91;71.13
9281;BME280;4679;47.966;7.958;2023-04-27T07:06:59;97257.09;;;11.94;70.09
9281;BME280;4679;47.966;7.958;2023-04-27T07:09:01;97257.66;;;11.96;70.97
9281;BME280;4679;47.966;7.958;2023-04-27T07:11:05;97263.53;;;11.98;70.62
9281;BME280;4679;47.966;7.958;2023-04-27T07:13:06;97264.91;;;12.01;70.26
9281;BME280;4679;47.966;7.958;2023-04-27T07:15:08;97267.31;;;12.03;70.24
9281;BME280;4679;47.966;7.958;2023-04-27T07:17:10;97267.63;;;12.06;70.19
9281;BME280;4679;47.966;7.958;2023-04-27T07:19:12;97260.47;;;12.12;69.83
9281;BME280;4679;47.966;7.958;2023-04-27T07:21:13;97260.84;;;12.20;69.69
9281;BME280;4679;47.966;7.958;2023-04-27T07:23:16;97259.59;;;12.28;69.44
9281;BME280;4679;47.966;7.958;2023-04-27T07:25:18;97257.25;;;12.31;68.91
9281;BME280;4679;47.966;7.958;2023-04-27T07:27:20;97255.13;;;12.33;69.36
9281;BME280;4679;47.966;7.958;2023-04-27T07:29:21;97257.34;;;12.42;68.87
9281;BME280;4679;47.966;7.958;2023-04-27T07:31:23;97249.16;;;12.48;68.22
9281;BME280;4679;47.966;7.958;2023-04-27T07:33:25;97249.50;;;12.57;68.12
9281;BME280;4679;47.966;7.958;2023-04-27T07:35:27;97244.28;;;12.67;68.23
9281;BME280;4679;47.966;7.958;2023-04-27T07:37:29;97251.47;;;12.72;68.09
9281;BME280;4679;47.966;7.958;2023-04-27T07:39:32;97248.31;;;12.75;67.87
9281;BME280;4679;47.966;7.958;2023-04-27T07:41:33;97251.59;;;12.82;67.49
9281;BME280;4679;47.966;7.958;2023-04-27T07:43:35;97246.03;;;12.88;67.64
9281;BME280;4679;47.966;7.958;2023-04-27T07:45:37;97241.31;;;13.00;67.51
9281;BME280;4679;47.966;7.958;2023-04-27T07:47:40;97241.09;;;13.07;66.87
9281;BME280;4679;47.966;7.958;2023-04-27T07:49:43;97241.56;;;12.99;66.66
9281;BME280;4679;47.966;7.958;2023-04-27T07:51:46;97236.25;;;12.99;66.91
9281;BME280;4679;47.966;7.958;2023-04-27T07:53:48;97238.66;;;13.00;66.79
9281;BME280;4679;47.966;7.958;2023-04-27T07:55:51;97232.31;;;13.07;66.44
9281;BME280;4679;47.966;7.958;2023-04-27T07:57:53;97236.88;;;13.11;66.10
9281;BME280;4679;47.966;7.958;2023-04-27T07:59:56;97234.31;;;13.21;65.25
9281;BME280;4679;47.966;7.958;2023-04-27T08:01:57;97237.03;;;13.31;65.14
9281;BME280;4679;47.966;7.958;2023-04-27T08:03:59;97239.00;;;13.51;64.53
9281;BME280;4679;47.966;7.958;2023-04-27T08:06:00;97231.91;;;13.72;63.90
9281;BME280;4679;47.966;7.958;2023-04-27T08:08:04;97236.22;;;13.83;63.69
9281;BME280;4679;47.966;7.958;2023-04-27T08:10:06;97235.97;;;13.85;63.46
9281;BME280;4679;47.966;7.958;2023-04-27T08:12:10;97234.59;;;13.82;63.29
9281;BME280;4679;47.966;7.958;2023-04-27T08:14:11;97230.38;;;13.96;63.22
9281;BME280;4679;47.966;7.958;2023-04-27T08:16:13;97236.28;;;14.03;63.13
9281;BME280;4679;47.966;7.958;2023-04-27T08:18:15;97240.56;;;14.09;62.98
9281;BME280;4679;47.966;7.958;2023-04-27T08:20:17;97237.09;;;14.09;62.62
9281;BME280;4679;47.966;7.958;2023-04-27T08:22:19;97241.09;;;14.12;62.83
9281;BME280;4679;47.966;7.958;2023-04-27T08:24:20;97238.69;;;14.00;62.73
9281;BME280;4679;47.966;7.958;2023-04-27T08:26:22;97236.78;;;13.95;62.73
9281;BME280;4679;47.966;7.958;2023-04-27T08:28:28;97232.28;;;14.01;62.80
9281;BME280;4679;47.966;7.958;2023-04-27T08:30:30;97238.69;;;14.10;62.49
9281;BME280;4679;47.966;7.958;2023-04-27T08:32:32;97231.78;;;14.24;62.20
9281;BME280;4679;47.966;7.958;2023-04-27T08:34:33;97231.81;;;14.29;61.88
9281;BME280;4679;47.966;7.958;2023-04-27T08:36:35;97245.13;;;14.24;61.87
9281;BME280;4679;47.966;7.958;2023-04-27T08:38:37;97225.91;;;14.17;61.79
9281;BME280;4679;47.966;7.958;2023-04-27T08:40:41;97228.84;;;14.16;61.93
9281;BME280;4679;47.966;7.958;2023-04-27T08:42:53;97225.91;;;14.12;61.53
9281;BME280;4679;47.966;7.958;2023-04-27T08:44:56;97222.72;;;14.20;61.19
9281;BME280;4679;47.966;7.958;2023-04-27T08:46:58;97217.13;;;14.32;60.81
9281;BME280;4679;47.966;7.958;2023-04-27T08:49:00;97221.47;;;14.48;60.52
9281;BME280;4679;47.966;7.958;2023-04-27T08:51:03;97211.03;;;14.57;60.17
9281;BME280;4679;47.966;7.958;2023-04-27T08:53:16;97214.00;;;14.65;59.93
9281;BME280;4679;47.966;7.958;2023-04-27T08:55:17;97208.34;;;14.97;59.74
9281;BME280;4679;47.966;7.958;2023-04-27T08:57:19;97218.75;;;15.14;59.28
9281;BME280;4679;47.966;7.958;2023-04-27T08:59:21;97216.84;;;15.30;58.75
9281;BME280;4679;47.966;7.958;2023-04-27T09:01:24;97214.41;;;15.43;57.94
9281;BME280;4679;47.966;7.958;2023-04-27T09:03:26;97210.91;;;15.63;58.30
9281;BME280;4679;47.966;7.958;2023-04-27T09:05:28;97212.16;;;15.86;57.55
9281;BME280;4679;47.966;7.958;2023-04-27T09:07:30;97214.25;;;15.94;57.82
9281;BME280;4679;47.966;7.958;2023-04-27T09:09:31;97220.72;;;15.83;57.32
9281;BME280;4679;47.966;7.958;2023-04-27T09:11:34;97215.38;;;15.88;57.03
9281;BME280;4679;47.966;7.958;2023-04-27T09:13:37;97223.63;;;15.92;57.37
9281;BME280;4679;47.966;7.958;2023-04-27T09:15:43;97224.44;;;15.92;57.10
9281;BME280;4679;47.966;7.958;2023-04-27T09:17:52;97221.72;;;16.02;57.38
9281;BME280;4679;47.966;7.958;2023-04-27T09:20:03;97224.59;;;16.16;57.17
9281;BME280;4679;47.966;7.958;2023-04-27T09:22:09;97226.31;;;16.36;56.34
9281;BME280;4679;47.966;7.958;2023-04-27T09:24:13;97227.22;;;16.65;56.20
9281;BME280;4679;47.966;7.958;2023-04-27T09:26:19;97233.34;;;16.71;55.55
9281;BME280;4679;47.966;7.958;2023-04-27T09:28:24;97223.31;;;16.86;55.59
9281;BME280;4679;47.966;7.958;2023-04-27T09:30:28;97218.09;;;17.00;54.90
9281;BME280;4679;47.966;7.958;2023-04-27T09:32:29;97222.28;;;17.11;55.21
9281;BME280;4679;47.966;7.958;2023-04-27T09:34:38;97225.13;;;17.25;55.05
9281;BME280;4679;47.966;7.958;2023-04-27T09:36:40;97220.75;;;17.29;54.85
9281;BME280;4679;47.966;7.958;2023-04-27T09:38:42;97222.00;;;17.13;54.92
9281;BME280;4679;47.966;7.958;2023-04-27T09:40:44;97223.38;;;17.10;54.81
9281;BME280;4679;47.966;7.958;2023-04-27T09:42:46;97218.88;;;17.06;54.58
9281;BME280;4679;47.966;7.958;2023-04-27T09:44:49;97223.56;;;16.90;54.51
9281;BME280;4679;47.966;7.958;2023-04-27T09:46:54;97218.06;;;17.05;54.26
9281;BME280;4679;47.966;7.958;2023-04-27T09:48:58;97224.41;;;17.14;54.55
9281;BME280;4679;47.966;7.958;2023-04-27T09:51:03;97218.59;;;17.31;54.31
9281;BME280;4679;47.966;7.958;2023-04-27T09:53:07;97220.31;;;17.46;53.61
9281;BME280;4679;47.966;7.958;2023-04-27T09:55:14;97215.31;;;17.39;53.53
9281;BME280;4679;47.966;7.958;2023-04-27T09:57:24;97212.69;;;17.34;53.56
9281;BME280;4679;47.966;7.958;2023-04-27T09:59:54;97203.34;;;17.55;53.18
9281;BME280;4679;47.966;7.958;2023-04-27T10:02:01;97205.41;;;17.64;53.24
9281;BME280;4679;47.966;7.958;2023-04-27T10:04:20;97210.78;;;17.58;53.26
9281;BME280;4679;47.966;7.958;2023-04-27T10:06:56;97209.75;;;17.07;54.22
9281;BME280;4679;47.966;7.958;2023-04-27T10:08:59;97201.44;;;16.74;54.23
9281;BME280;4679;47.966;7.958;2023-04-27T10:11:12;97200.53;;;16.84;53.67
9281;BME280;4679;47.966;7.958;2023-04-27T10:13:21;97194.91;;;17.14;53.28
9281;BME280;4679;47.966;7.958;2023-04-27T10:15:27;97196.41;;;17.49;52.73
9281;BME280;4679;47.966;7.958;2023-04-27T10:17:31;97198.25;;;17.78;52.33
9281;BME280;4679;47.966;7.958;2023-04-27T10:19:33;97195.94;;;17.71;52.50
9281;BME280;4679;47.966;7.958;2023-04-27T10:21:35;97202.09;;;17.43;52.83
9281;BME280;4679;47.966;7.958;2023-04-27T10:23:45;97211.84;;;17.39;52.86
9281;BME280;4679;47.966;7.958;2023-04-27T10:25:48;97200.47;;;17.47;52.44
9281;BME280;4679;47.966;7.958;2023-04-27T10:27:51;97196.28;;;17.59;52.43
9281;BME280;4679;47.966;7.958;2023-04-27T10:29:54;97207.59;;;17.33;52.56
9281;BME280;4679;47.966;7.958;2023-04-27T10:32:05;97213.50;;;17.06;53.12
9281;BME280;4679;47.966;7.958;2023-04-27T10:34:07;97203.56;;;17.06;53.00
9281;BME280;4679;47.966;7.958;2023-04-27T10:36:13;97201.06;;;17.15;52.84
9281;BME280;4679;47.966;7.958;2023-04-27T10:38:17;97196.63;;;17.05;52.47
9281;BME280;4679;47.966;7.958;2023-04-27T10:40:32;97205.31;;;17.21;52.08
9281;BME280;4679;47.966;7.958;2023-04-27T10:42:34;97205.09;;;17.12;52.60
9281;BME280;4679;47.966;7.958;2023-04-27T10:44:36;97202.28;;;16.99;52.76
9281;BME280;4679;47.966;7.958;2023-04-27T10:46:48;97200.19;;;16.96;52.67
9281;BME280;4679;47.966;7.958;2023-04-27T10:48:51;97200.50;;;16.89;52.28
9281;BME280;4679;47.966;7.958;2023-04-27T10:50:52;97204.78;;;16.90;52.62
9281;BME280;4679;47.966;7.958;2023-04-27T10:52:58;97202.91;;;17.19;51.56
9281;BME280;4679;47.966;7.958;2023-04-27T10:55:12;97199.16;;;17.44;50.82
9281;BME280;4679;47.966;7.958;2023-04-27T10:57:15;97191.81;;;17.55;51.29
9281;BME280;4679;47.966;7.958;2023-04-27T10:59:17;97188.16;;;17.70;50.65
9281;BME280;4679;47.966;7.958;2023-04-27T11:01:23;97187.00;;;17.76;50.54
9281;BME280;4679;47.966;7.958;2023-04-27T11:03:25;97188.13;;;18.12;50.18
9281;BME280;4679;47.966;7.958;2023-04-27T11:05:26;97191.75;;;18.21;49.86
9281;BME280;4679;47.966;7.958;2023-04-27T11:07:32;97188.84;;;18.55;49.41
9281;BME280;4679;47.966;7.958;2023-04-27T11:09:34;97192.59;;;18.92;48.77
9281;BME280;4679;47.966;7.958;2023-04-27T11:11:37;97193.66;;;18.40;49.39
9281;BME280;4679;47.966;7.958;2023-04-27T11:13:41;97188.91;;;18.50;49.47
9281;BME280;4679;47.966;7.958;2023-04-27T11:15:45;97193.28;;;18.46;49.48
9281;BME280;4679;47.966;7.958;2023-04-27T11:17:47;97190.66;;;18.22;50.01
9281;BME280;4679;47.966;7.958;2023-04-27T11:19:50;97189.75;;;18.13;50.36
9281;BME280;4679;47.966;7.958;2023-04-27T11:21:51;97188.63;;;18.52;49.35
9281;BME280;4679;47.966;7.958;2023-04-27T11:24:03;97179.19;;;18.73;48.98
9281;BME280;4679;47.966;7.958;2023-04-27T11:26:09;97167.34;;;18.55;49.28
9281;BME280;4679;47.966;7.958;2023-04-27T11:28:16;97176.38;;;18.46;49.43
9281;BME280;4679;47.966;7.958;2023-04-27T11:30:20;97175.13;;;18.38;49.42
9281;BME280;4679;47.966;7.958;2023-04-27T11:32:23;97173.91;;;18.31;49.95
9281;BME280;4679;47.966;7.958;2023-04-27T11:34:25;97168.72;;;18.34;49.49
9281;BME280;4679;47.966;7.958;2023-04-27T11:36:27;97169.50;;;18.72;48.76
9281;BME280;4679;47.966;7.958;2023-04-27T11:38:32;97165.69;;;18.92;48.57
9281;BME280;4679;47.966;7.958;2023-04-27T11:40:33;97160.22;;;18.65;48.87
9281;BME280;4679;47.966;7.958;2023-04-27T11:42:39;97155.06;;;18.68;48.81
9281;BME280;4679;47.966;7.958;2023-04-27T11:44:51;97171.34;;;18.39;48.87
9281;BME280;4679;47.966;7.958;2023-04-27T11:46:54;97167.50;;;18.08;49.47
9281;BME280;4679;47.966;7.958;2023-04-27T11:49:00;97161.84;;;18.09;49.68
9281;BME280;4679;47.966;7.958;2023-04-27T11:51:02;97162.31;;;18.16;49.22
9281;BME280;4679;47.966;7.958;2023-04-27T11:53:05;97168.38;;;18.22;49.17
9281;BME280;4679;47.966;7.958;2023-04-27T11:55:07;97173.91;;;18.12;49.30
9281;BME280;4679;47.966;7.958;2023-04-27T11:57:15;97162.53;;;18.01;49.37
9281;BME280;4679;47.966;7.958;2023-04-27T11:59:18;97159.97;;;17.91;49.10
9281;BME280;4679;47.966;7.958;2023-04-27T12:01:20;97162.81;;;18.00;49.25
9281;BME280;4679;47.966;7.958;2023-04-27T12:03:23;97160.47;;;18.12;48.79
9281;BME280;4679;47.966;7.958;2023-04-27T12:05:26;97156.72;;;18.13;48.97
9281;BME280;4679;47.966;7.958;2023-04-27T12:07:27;97153.81;;;18.09;48.93
9281;BME280;4679;47.966;7.958;2023-04-27T12:09:29;97151.06;;;18.14;48.61
9281;BME280;4679;47.966;7.958;2023-04-27T12:11:31;97148.88;;;18.16;48.66
9281;BME280;4679;47.966;7.958;2023-04-27T12:13:33;97156.94;;;18.49;48.14
9281;BME280;4679;47.966;7.958;2023-04-27T12:15:34;97162.66;;;18.47;48.23
9281;BME280;4679;47.966;7.958;2023-04-27T12:17:37;97157.91;;;18.39;48.41
9281;BME280;4679;47.966;7.958;2023-04-27T12:19:40;97146.31;;;18.44;48.30
9281;BME280;4679;47.966;7.958;2023-04-27T12:21:41;97155.16;;;18.63;47.75
9281;BME280;4679;47.966;7.958;2023-04-27T12:23:43;97148.34;;;18.84;47.39
9281;BME280;4679;47.966;7.958;2023-04-27T12:25:45;97151.72;;;18.76;47.54
9281;BME280;4679;47.966;7.958;2023-04-27T12:27:47;97149.19;;;18.66;47.66
9281;BME280;4679;47.966;7.958;2023-04-27T12:29:49;97156.25;;;18.43;47.91
9281;BME280;4679;47.966;7.958;2023-04-27T12:31:53;97151.34;;;18.32;48.02
9281;BME280;4679;47.966;7.958;2023-04-27T12:33:55;97154.72;;;18.37;48.21
9281;BME280;4679;47.966;7.958;2023-04-27T12:35:58;97143.34;;;18.26;48.15
9281;BME280;4679;47.966;7.958;2023-04-27T12:37:59;97142.91;;;18.19;48.39
9281;BME280;4679;47.966;7.958;2023-04-27T12:40:03;97143.56;;;18.30;47.86
9281;BME280;4679;47.966;7.958;2023-04-27T12:42:06;97152.75;;;18.43;47.76
9281;BME280;4679;47.966;7.958;2023-04-27T12:44:08;97151.97;;;18.42;47.49
9281;BME280;4679;47.966;7.958;2023-04-27T12:46:10;97154.50;;;18.34;47.73
9281;BME280;4679;47.966;7.958;2023-04-27T12:48:12;97150.53;;;18.31;47.73
9281;BME280;4679;47.966;7.958;2023-04-27T12:50:15;97150.88;;;18.24;47.68
9281;BME280;4679;47.966;7.958;2023-04-27T12:52:18;97153.06;;;18.22;47.66
9281;BME280;4679;47.966;7.958;2023-04-27T12:54:20;97153.97;;;18.18;47.73
9281;BME280;4679;47.966;7.958;2023-04-27T12:56:22;97149.56;;;18.22;47.60
9281;BME280;4679;47.966;7.958;2023-04-27T12:58:24;97158.09;;;18.29;47.50
9281;BME280;4679;47.966;7.958;2023-04-27T13:00:26;97151.53;;;18.35;47.13
9281;BME280;4679;47.966;7.958;2023-04-27T13:02:28;97143.72;;;18.52;46.89
9281;BME280;4679;47.966;7.958;2023-04-27T13:04:31;97145.09;;;18.69;46.66
9281;BME280;4679;47.966;7.958;2023-04-27T13:06:32;97140.16;;;18.76;46.63
9281;BME280;4679;47.966;7.958;2023-04-27T13:08:36;97137.19;;;18.77;46.50
9281;BME280;4679;47.966;7.958;2023-04-27T13:10:38;97146.50;;;18.66;46.69
9281;BME280;4679;47.966;7.958;2023-04-27T13:12:40;97144.31;;;18.49;46.74
9281;BME280;4679;47.966;7.958;2023-04-27T13:14:42;97137.56;;;18.52;46.86
9281;BME280;4679;47.966;7.958;2023-04-27T13:16:45;97142.81;;;19.22;45.66
9281;BME280;4679;47.966;7.958;2023-04-27T13:18:47;97134.44;;;19.78;44.77
9281;BME280;4679;47.966;7.958;2023-04-27T13:20:51;97130.34;;;19.81;44.55
9281;BME280;4679;47.966;7.958;2023-04-27T13:22:53;97140.28;;;19.94;44.09
9281;BME280;4679;47.966;7.958;2023-04-27T13:24:56;97136.28;;;20.27;43.60
9281;BME280;4679;47.966;7.958;2023-04-27T13:26:58;97133.94;;;20.48;43.29
9281;BME280;4679;47.966;7.958;2023-04-27T13:29:00;97135.09;;;19.97;44.19
9281;BME280;4679;47.966;7.958;2023-04-27T13:31:04;97131.84;;;19.46;44.72
9281;BME280;4679;47.966;7.958;2023-04-27T13:33:06;97139.78;;;19.10;45.06
9281;BME280;4679;47.966;7.958;2023-04-27T13:35:11;97141.56;;;18.87;45.37
9281;BME280;4679;47.966;7.958;2023-04-27T13:37:13;97133.81;;;19.13;44.99
9281;BME280;4679;47.966;7.958;2023-04-27T13:39:15;97127.25;;;19.19;44.85
9281;BME280;4679;47.966;7.958;2023-04-27T13:41:18;97125.97;;;19.03;45.00
9281;BME280;4679;47.966;7.958;2023-04-27T13:43:20;97114.31;;;18.93;44.97
9281;BME280;4679;47.966;7.958;2023-04-27T13:45:22;97105.22;;;19.44;43.96
9281;BME280;4679;47.966;7.958;2023-04-27T13:47:24;97105.94;;;19.63;43.44
9281;BME280;4679;47.966;7.958;2023-04-27T13:49:25;97109.50;;;19.73;43.27
9281;BME280;4679;47.966;7.958;2023-04-27T13:51:27;97106.25;;;19.98;42.84
9281;BME280;4679;47.966;7.958;2023-04-27T13:53:29;97104.53;;;20.02;42.77
9281;BME280;4679;47.966;7.958;2023-04-27T13:55:31;97108.84;;;19.67;43.29
9281;BME280;4679;47.966;7.958;2023-04-27T13:57:34;97108.72;;;19.31;43.82
9281;BME280;4679;47.966;7.958;2023-04-27T13:59:36;97114.41;;;19.29;43.85
9281;BME280;4679;47.966;7.958;2023-04-27T14:01:38;97110.91;;;19.15;43.98
9281;BME280;4679;47.966;7.958;2023-04-27T14:03:39;97114.31;;;19.07;44.16
9281;BME280;4679;47.966;7.958;2023-04-27T14:05:41;97117.22;;;19.52;43.16
9281;BME280;4679;47.966;7.958;2023-04-27T14:07:43;97110.91;;;20.06;42.18
9281;BME280;4679;47.966;7.958;2023-04-27T14:09:44;97110.13;;;19.70;42.89
9281;BME280;4679;47.966;7.958;2023-04-27T14:11:46;97102.22;;;20.09;42.12
9281;BME280;4679;47.966;7.958;2023-04-27T14:13:49;97100.66;;;20.30;41.76
9281;BME280;4679;47.966;7.958;2023-04-27T14:15:51;97100.16;;;20.51;41.58
9281;BME280;4679;47.966;7.958;2023-04-27T14:17:52;97098.06;;;20.25;41.79
9281;BME280;4679;47.966;7.958;2023-04-27T14:19:54;97095.94;;;20.36;41.31
9281;BME280;4679;47.966;7.958;2023-04-27T14:21:56;97096.59;;;20.64;40.91
9281;BME280;4679;47.966;7.958;2023-04-27T14:23:57;97093.78;;;21.08;40.43
9281;BME280;4679;47.966;7.958;2023-04-27T14:25:59;97105.16;;;20.88;40.57
9281;BME280;4679;47.966;7.958;2023-04-27T14:28:02;97108.78;;;20.84;40.77
9281;BME280;4679;47.966;7.958;2023-04-27T14:30:07;97099.59;;;20.62;41.02
9281;BME280;4679;47.966;7.958;2023-04-27T14:32:08;97102.50;;;20.44;41.42
9281;BME280;4679;47.966;7.958;2023-04-27T14:34:10;97099.72;;;20.13;41.61
9281;BME280;4679;47.966;7.958;2023-04-27T14:36:13;97088.66;;;20.36;41.68
9281;BME280;4679;47.966;7.958;2023-04-27T14:38:17;97090.31;;;20.46;41.04
9281;BME280;4679;47.966;7.958;2023-04-27T14:40:19;97094.00;;;19.92;41.57
9281;BME280;4679;47.966;7.958;2023-04-27T14:42:21;97091.28;;;19.56;41.96
9281;BME280;4679;47.966;7.958;2023-04-27T14:44:22;97089.88;;;19.31;42.38
9281;BME280;4679;47.966;7.958;2023-04-27T14:46:25;97089.81;;;19.22;42.31
9281;BME280;4679;47.966;7.958;2023-04-27T14:48:28;97094.38;;;19.22;42.17
9281;BME280;4679;47.966;7.958;2023-04-27T14:50:29;97083.34;;;19.23;42.10
9281;BME280;4679;47.966;7.958;2023-04-27T14:52:31;97078.53;;;19.20;42.19
9281;BME280;4679;47.966;7.958;2023-04-27T14:54:33;97090.59;;;19.23;41.92
9281;BME280;4679;47.966;7.958;2023-04-27T14:56:35;97085.91;;;19.15;41.99
9281;BME280;4679;47.966;7.958;2023-04-27T14:58:37;97091.09;;;19.11;41.95
9281;BME280;4679;47.966;7.958;2023-04-27T15:00:39;97085.22;;;19.50;41.07
9281;BME280;4679;47.966;7.958;2023-04-27T15:02:42;97086.59;;;19.61;40.99
9281;BME280;4679;47.966;7.958;2023-04-27T15:04:44;97081.81;;;19.58;41.33
9281;BME280;4679;47.966;7.958;2023-04-27T15:06:46;97081.75;;;19.86;40.56
9281;BME280;4679;47.966;7.958;2023-04-27T15:08:47;97074.97;;;20.33;40.12
9281;BME280;4679;47.966;7.958;2023-04-27T15:10:49;97078.56;;;20.42;39.97
9281;BME280;4679;47.966;7.958;2023-04-27T15:12:50;97077.28;;;20.40;39.63
9281;BME280;4679;47.966;7.958;2023-04-27T15:14:52;97077.06;;;20.14;40.33
9281;BME280;4679;47.966;7.958;2023-04-27T15:16:54;97079.53;;;19.88;40.60
9281;BME280;4679;47.966;7.958;2023-04-27T15:18:57;97080.38;;;19.75;40.60
9281;BME280;4679;47.966;7.958;2023-04-27T15:20:59;97071.72;;;19.64;40.83
9281;BME280;4679;47.966;7.958;2023-04-27T15:23:00;97065.06;;;19.48;40.86
9281;BME280;4679;47.966;7.958;2023-04-27T15:25:02;97066.88;;;19.52;41.02
9281;BME280;4679;47.966;7.958;2023-04-27T15:27:04;97066.34;;;19.64;40.59
9281;BME280;4679;47.966;7.958;2023-04-27T15:29:06;97063.97;;;19.49;41.18
9281;BME280;4679;47.966;7.958;2023-04-27T15:31:07;97065.56;;;19.36;41.16
9281;BME280;4679;47.966;7.958;2023-04-27T15:33:09;97057.72;;;19.53;40.83
9281;BME280;4679;47.966;7.958;2023-04-27T15:35:12;97054.09;;;19.44;40.79
9281;BME280;4679;47.966;7.958;2023-04-27T15:37:14;97051.03;;;19.37;41.03
9281;BME280;4679;47.966;7.958;2023-04-27T15:39:16;97057.72;;;19.40;40.91
9281;BME280;4679;47.966;7.958;2023-04-27T15:41:17;97048.34;;;19.37;40.86
9281;BME280;4679;47.966;7.958;2023-04-27T15:43:19;97052.19;;;19.45;40.74
9281;BME280;4679;47.966;7.958;2023-04-27T15:45:21;97046.94;;;19.53;40.52
9281;BME280;4679;47.966;7.958;2023-04-27T15:47:23;97051.53;;;19.53;40.63
9281;BME280;4679;47.966;7.958;2023-04-27T15:49:24;97043.94;;;19.55;40.49
9281;BME280;4679;47.966;7.958;2023-04-27T15:51:27;97043.63;;;19.70;40.37
9281;BME280;4679;47.966;7.958;2023-04-27T15:53:29;97043.63;;;19.92;40.39
9281;BME280;4679;47.966;7.958;2023-04-27T15:55:31;97043.94;;;19.91;40.29
9281;BME280;4679;47.966;7.958;2023-04-27T15:57:33;97045.63;;;19.87;40.30
9281;BME280;4679;47.966;7.958;2023-04-27T15:59:35;97044.06;;;19.86;40.26
9281;BME280;4679;47.966;7.958;2023-04-27T16:01:36;97035.53;;;19.92;39.97
9281;BME280;4679;47.966;7.958;2023-04-27T16:03:38;97040.81;;;19.97;40.12
9281;BME280;4679;47.966;7.958;2023-04-27T16:05:40;97020.72;;;20.03;39.87
9281;BME280;4679;47.966;7.958;2023-04-27T16:07:43;97026.78;;;20.09;39.32
9281;BME280;4679;47.966;7.958;2023-04-27T16:09:45;97015.22;;;20.09;39.61
9281;BME280;4679;47.966;7.958;2023-04-27T16:11:47;97028.28;;;20.15;39.92
9281;BME280;4679;47.966;7.958;2023-04-27T16:13:48;97016.28;;;19.99;39.95
9281;BME280;4679;47.966;7.958;2023-04-27T16:15:50;97022.16;;;20.01;39.95
9281;BME280;4679;47.966;7.958;2023-04-27T16:17:52;97019.88;;;19.94;39.91
9281;BME280;4679;47.966;7.958;2023-04-27T16:19:53;97018.09;;;19.90;39.98
9281;BME280;4679;47.966;7.958;2023-04-27T16:21:55;97021.81;;;20.02;40.25
9281;BME280;4679;47.966;7.958;2023-04-27T16:23:58;97013.75;;;20.25;39.32
9281;BME280;4679;47.966;7.958;2023-04-27T16:26:00;97014.91;;;20.10;39.79
9281;BME280;4679;47.966;7.958;2023-04-27T16:28:01;97014.41;;;20.08;40.04
9281;BME280;4679;47.966;7.958;2023-04-27T16:30:04;97010.00;;;19.90;40.28
9281;BME280;4679;47.966;7.958;2023-04-27T16:32:06;97009.16;;;19.81;39.98
9281;BME280;4679;47.966;7.958;2023-04-27T16:34:09;97021.00;;;19.57;40.42
9281;BME280;4679;47.966;7.958;2023-04-27T16:36:11;97025.09;;;19.55;40.40
9281;BME280;4679;47.966;7.958;2023-04-27T16:38:13;97022.41;;;19.55;40.27
9281;BME280;4679;47.966;7.958;2023-04-27T16:40:16;97013.13;;;19.47;40.58
9281;BME280;4679;47.966;7.958;2023-04-27T16:42:17;97011.44;;;19.51;40.54
9281;BME280;4679;47.966;7.958;2023-04-27T16:44:20;97018.31;;;19.44;40.37
9281;BME280;4679;47.966;7.958;2023-04-27T16:46:23;97011.06;;;19.30;40.44
9281;BME280;4679;47.966;7.958;2023-04-27T16:48:24;97023.63;;;19.35;40.52
9281;BME280;4679;47.966;7.958;2023-04-27T16:50:26;97009.66;;;19.33;40.55
9281;BME280;4679;47.966;7.958;2023-04-27T16:52:30;97015.41;;;19.40;40.48
9281;BME280;4679;47.966;7.958;2023-04-27T16:54:32;97014.31;;;19.41;40.68
9281;BME280;4679;47.966;7.958;2023-04-27T16:56:35;97015.41;;;19.40;40.54
9281;BME280;4679;47.966;7.958;2023-04-27T16:58:37;97015.28;;;19.23;40.79
9281;BME280;4679;47.966;7.958;2023-04-27T17:00:38;97014.47;;;18.95;40.95
9281;BME280;4679;47.966;7.958;2023-04-27T17:02:40;97018.38;;;18.89;41.35
9281;BME280;4679;47.966;7.958;2023-04-27T17:04:42;97016.28;;;18.86;41.18
9281;BME280;4679;47.966;7.958;2023-04-27T17:06:44;97021.47;;;18.82;41.21
9281;BME280;4679;47.966;7.958;2023-04-27T17:08:47;97023.19;;;18.78;41.23
9281;BME280;4679;47.966;7.958;2023-04-27T17:10:49;97017.59;;;18.75;41.53